sensor_id;sensor_type;location;lat;lon;timestamp;temperature;humidity
60723;DHT22;46574;52.818;6.516;2023-12-07T00:00:39;2.10;99.90
60723;DHT22;46574;52.818;6.516;2023-12-07T00:03:05;2.00;99.90
60723;DHT22;46574;52.818;6.516;2023-12-07T00:05:32;2.00;99.90
60723;DHT22;46574;52.818;6.516;2023-12-07T00:07:58;2.00;99.90
60723;DHT22;46574;52.818;6.516;2023-12-07T00:10:24;2.00;99.90
60723;DHT22;46574;52.818;6.516;2023-12-07T00:12:50;2.00;99.90
60723;DHT22;46574;52.818;6.516;2023-12-07T00:15:15;1.90;99.90
60723;DHT22;46574;52.818;6.516;2023-12-07T00:17:41;1.90;99.90
60723;DHT22;46574;52.818;6.516;2023-12-07T00:20:07;1.80;99.90
60723;DHT22;46574;52.818;6.516;2023-12-07T00:22:33;1.80;99.90
60723;DHT22;46574;52.818;6.516;2023-12-07T00:24:59;1.70;99.90
60723;DHT22;46574;52.818;6.516;2023-12-07T00:27:24;1.70;99.90
60723;DHT22;46574;52.818;6.516;2023-12-07T00:29:50;1.60;99.90
60723;DHT22;46574;52.818;6.516;2023-12-07T00:32:16;1.70;99.90
60723;DHT22;46574;52.818;6.516;2023-12-07T00:34:43;1.70;99.90
60723;DHT22;46574;52.818;6.516;2023-12-07T00:37:08;1.70;99.90
60723;DHT22;46574;52.818;6.516;2023-12-07T00:39:35;1.70;99.90
60723;DHT22;46574;52.818;6.516;2023-12-07T00:42:01;1.70;99.90
60723;DHT22;46574;52.818;6.516;2023-12-07T00:44:28;1.70;99.90
60723;DHT22;46574;52.818;6.516;2023-12-07T00:46:54;1.70;99.90
60723;DHT22;46574;52.818;6.516;2023-12-07T00:49:19;1.70;99.90
60723;DHT22;46574;52.818;6.516;2023-12-07T00:51:45;1.80;99.90
60723;DHT22;46574;52.818;6.516;2023-12-07T00:54:10;1.80;99.90
60723;DHT22;46574;52.818;6.516;2023-12-07T00:56:36;1.80;99.90
60723;DHT22;46574;52.818;6.516;2023-12-07T00:59:03;1.80;99.90
60723;DHT22;46574;52.818;6.516;2023-12-07T01:01:28;1.80;99.90
60723;DHT22;46574;52.818;6.516;2023-12-07T01:03:54;1.80;99.90
60723;DHT22;46574;52.818;6.516;2023-12-07T01:06:20;1.80;99.90
60723;DHT22;46574;52.818;6.516;2023-12-07T01:08:46;1.80;99.90
60723;DHT22;46574;52.818;6.516;2023-12-07T01:11:11;1.80;99.90
60723;DHT22;46574;52.818;6.516;2023-12-07T01:13:37;1.80;99.90
60723;DHT22;46574;52.818;6.516;2023-12-07T01:16:03;1.90;99.90
60723;DHT22;46574;52.818;6.516;2023-12-07T01:18:28;1.90;99.90
60723;DHT22;46574;52.818;6.516;2023-12-07T01:20:54;2.00;99.90
60723;DHT22;46574;52.818;6.516;2023-12-07T01:23:20;2.00;99.90
60723;DHT22;46574;52.818;6.516;2023-12-07T01:25:45;2.00;99.90
60723;DHT22;46574;52.818;6.516;2023-12-07T01:28:11;2.00;99.90
60723;DHT22;46574;52.818;6.516;2023-12-07T01:30:37;2.10;99.90
60723;DHT22;46574;52.818;6.516;2023-12-07T01:33:02;2.10;99.90
60723;DHT22;46574;52.818;6.516;2023-12-07T01:35:28;2.10;99.90
60723;DHT22;46574;52.818;6.516;2023-12-07T01:37:54;2.10;99.90
60723;DHT22;46574;52.818;6.516;2023-12-07T01:40:20;2.10;99.90
60723;DHT22;46574;52.818;6.516;2023-12-07T01:42:50;2.10;99.90
60723;DHT22;46574;52.818;6.516;2023-12-07T01:45:16;2.10;99.90
60723;DHT22;46574;52.818;6.516;2023-12-07T01:47:42;2.10;99.90
60723;DHT22;46574;52.818;6.516;2023-12-07T01:50:09;2.10;99.90
60723;DHT22;46574;52.818;6.516;2023-12-07T01:52:38;2.10;99.90
60723;DHT22;46574;52.818;6.516;2023-12-07T01:55:07;2.10;99.90
60723;DHT22;46574;52.818;6.516;2023-12-07T01:57:35;2.10;99.90
60723;DHT22;46574;52.818;6.516;2023-12-07T02:00:01;2.10;99.90
60723;DHT22;46574;52.818;6.516;2023-12-07T02:02:27;2.10;99.90
60723;DHT22;46574;52.818;6.516;2023-12-07T02:04:52;2.10;99.90
60723;DHT22;46574;52.818;6.516;2023-12-07T02:07:19;2.10;99.90
60723;DHT22;46574;52.818;6.516;2023-12-07T02:09:45;2.10;99.90
60723;DHT22;46574;52.818;6.516;2023-12-07T02:12:11;2.10;99.90
60723;DHT22;46574;52.818;6.516;2023-12-07T02:14:36;2.00;99.90
60723;DHT22;46574;52.818;6.516;2023-12-07T02:19:49;1.90;99.90
60723;DHT22;46574;52.818;6.516;2023-12-07T02:22:42;1.90;99.90
60723;DHT22;46574;52.818;6.516;2023-12-07T02:25:10;1.80;99.90
60723;DHT22;46574;52.818;6.516;2023-12-07T02:27:41;1.80;99.90
60723;DHT22;46574;52.818;6.516;2023-12-07T02:30:08;1.80;99.90
60723;DHT22;46574;52.818;6.516;2023-12-07T02:32:36;1.70;99.90
60723;DHT22;46574;52.818;6.516;2023-12-07T02:35:01;1.70;99.90
60723;DHT22;46574;52.818;6.516;2023-12-07T02:37:28;1.60;99.90
60723;DHT22;46574;52.818;6.516;2023-12-07T02:39:56;1.60;99.90
60723;DHT22;46574;52.818;6.516;2023-12-07T02:42:23;1.50;99.90
60723;DHT22;46574;52.818;6.516;2023-12-07T02:44:52;1.40;99.90
60723;DHT22;46574;52.818;6.516;2023-12-07T02:47:18;1.40;99.90
60723;DHT22;46574;52.818;6.516;2023-12-07T02:49:44;1.30;99.90
60723;DHT22;46574;52.818;6.516;2023-12-07T02:52:10;1.30;99.90
60723;DHT22;46574;52.818;6.516;2023-12-07T02:54:36;1.20;99.90
60723;DHT22;46574;52.818;6.516;2023-12-07T02:57:01;1.20;99.90
60723;DHT22;46574;52.818;6.516;2023-12-07T02:59:27;1.20;99.90
60723;DHT22;46574;52.818;6.516;2023-12-07T03:01:53;1.20;99.90
60723;DHT22;46574;52.818;6.516;2023-12-07T03:04:19;1.10;99.90
60723;DHT22;46574;52.818;6.516;2023-12-07T03:06:44;1.10;99.90
60723;DHT22;46574;52.818;6.516;2023-12-07T03:09:10;1.00;99.90
60723;DHT22;46574;52.818;6.516;2023-12-07T03:11:35;1.00;99.90
60723;DHT22;46574;52.818;6.516;2023-12-07T03:14:01;1.00;99.90
60723;DHT22;46574;52.818;6.516;2023-12-07T03:16:27;1.00;99.90
60723;DHT22;46574;52.818;6.516;2023-12-07T03:18:52;1.00;99.90
60723;DHT22;46574;52.818;6.516;2023-12-07T03:21:18;1.00;99.90
60723;DHT22;46574;52.818;6.516;2023-12-07T03:23:44;0.90;99.90
60723;DHT22;46574;52.818;6.516;2023-12-07T03:26:09;0.90;99.90
60723;DHT22;46574;52.818;6.516;2023-12-07T03:28:35;0.90;99.90
60723;DHT22;46574;52.818;6.516;2023-12-07T03:31:01;0.90;99.90
60723;DHT22;46574;52.818;6.516;2023-12-07T03:33:26;0.90;99.90
60723;DHT22;46574;52.818;6.516;2023-12-07T03:35:52;0.90;99.90
60723;DHT22;46574;52.818;6.516;2023-12-07T03:38:18;0.90;99.90
60723;DHT22;46574;52.818;6.516;2023-12-07T03:40:44;0.80;99.90
60723;DHT22;46574;52.818;6.516;2023-12-07T03:43:13;0.80;99.90
60723;DHT22;46574;52.818;6.516;2023-12-07T03:45:38;0.80;99.90
60723;DHT22;46574;52.818;6.516;2023-12-07T03:48:04;0.80;99.90
60723;DHT22;46574;52.818;6.516;2023-12-07T03:50:30;0.80;99.90
60723;DHT22;46574;52.818;6.516;2023-12-07T03:52:56;0.80;99.90
60723;DHT22;46574;52.818;6.516;2023-12-07T03:55:21;0.80;99.90
60723;DHT22;46574;52.818;6.516;2023-12-07T03:57:47;0.80;99.90
60723;DHT22;46574;52.818;6.516;2023-12-07T04:00:13;0.70;99.90
60723;DHT22;46574;52.818;6.516;2023-12-07T04:02:39;0.70;99.90
60723;DHT22;46574;52.818;6.516;2023-12-07T04:05:04;0.70;99.90
60723;DHT22;46574;52.818;6.516;2023-12-07T04:07:30;0.80;99.90
60723;DHT22;46574;52.818;6.516;2023-12-07T04:09:56;0.80;99.90
60723;DHT22;46574;52.818;6.516;2023-12-07T04:12:23;0.90;99.90
60723;DHT22;46574;52.818;6.516;2023-12-07T04:14:52;0.80;99.90
60723;DHT22;46574;52.818;6.516;2023-12-07T04:17:17;0.90;99.90
60723;DHT22;46574;52.818;6.516;2023-12-07T04:19:43;0.90;99.90
60723;DHT22;46574;52.818;6.516;2023-12-07T04:22:09;0.90;99.90
60723;DHT22;46574;52.818;6.516;2023-12-07T04:24:34;1.00;99.90
60723;DHT22;46574;52.818;6.516;2023-12-07T04:27:00;0.90;99.90
60723;DHT22;46574;52.818;6.516;2023-12-07T04:29:25;0.90;99.90
60723;DHT22;46574;52.818;6.516;2023-12-07T04:31:51;0.90;99.90
60723;DHT22;46574;52.818;6.516;2023-12-07T04:34:17;0.90;99.90
60723;DHT22;46574;52.818;6.516;2023-12-07T04:36:42;0.90;99.90
60723;DHT22;46574;52.818;6.516;2023-12-07T04:39:08;0.90;99.90
60723;DHT22;46574;52.818;6.516;2023-12-07T04:41:33;0.90;99.90
60723;DHT22;46574;52.818;6.516;2023-12-07T04:43:59;0.90;99.90
60723;DHT22;46574;52.818;6.516;2023-12-07T04:46:25;1.00;99.90
60723;DHT22;46574;52.818;6.516;2023-12-07T04:48:50;0.90;99.90
60723;DHT22;46574;52.818;6.516;2023-12-07T04:51:16;0.90;99.90
60723;DHT22;46574;52.818;6.516;2023-12-07T04:53:42;0.90;99.90
60723;DHT22;46574;52.818;6.516;2023-12-07T04:56:08;0.90;99.90
60723;DHT22;46574;52.818;6.516;2023-12-07T04:58:34;0.90;99.90
60723;DHT22;46574;52.818;6.516;2023-12-07T05:01:00;0.90;99.90
60723;DHT22;46574;52.818;6.516;2023-12-07T05:03:25;0.90;99.90
60723;DHT22;46574;52.818;6.516;2023-12-07T05:05:51;0.90;99.90
60723;DHT22;46574;52.818;6.516;2023-12-07T05:08:17;0.90;99.90
60723;DHT22;46574;52.818;6.516;2023-12-07T05:10:46;0.90;99.90
60723;DHT22;46574;52.818;6.516;2023-12-07T05:13:12;0.80;99.90
60723;DHT22;46574;52.818;6.516;2023-12-07T05:15:37;0.80;99.90
60723;DHT22;46574;52.818;6.516;2023-12-07T05:18:03;0.90;99.90
60723;DHT22;46574;52.818;6.516;2023-12-07T05:20:29;0.90;99.90
60723;DHT22;46574;52.818;6.516;2023-12-07T05:22:56;0.90;99.90
60723;DHT22;46574;52.818;6.516;2023-12-07T05:25:21;0.90;99.90
60723;DHT22;46574;52.818;6.516;2023-12-07T05:27:47;0.90;99.90
60723;DHT22;46574;52.818;6.516;2023-12-07T05:30:14;0.90;99.90
60723;DHT22;46574;52.818;6.516;2023-12-07T05:32:40;0.90;99.90
60723;DHT22;46574;52.818;6.516;2023-12-07T05:35:06;0.90;99.90
60723;DHT22;46574;52.818;6.516;2023-12-07T05:37:32;0.90;99.90
60723;DHT22;46574;52.818;6.516;2023-12-07T05:39:58;0.80;99.90
60723;DHT22;46574;52.818;6.516;2023-12-07T05:42:23;0.80;99.90
60723;DHT22;46574;52.818;6.516;2023-12-07T05:44:49;0.80;99.90
60723;DHT22;46574;52.818;6.516;2023-12-07T05:47:14;0.80;99.90
60723;DHT22;46574;52.818;6.516;2023-12-07T05:49:40;0.80;99.90
60723;DHT22;46574;52.818;6.516;2023-12-07T05:52:07;0.80;99.90
60723;DHT22;46574;52.818;6.516;2023-12-07T05:54:33;0.80;99.90
60723;DHT22;46574;52.818;6.516;2023-12-07T05:56:59;0.80;99.90
60723;DHT22;46574;52.818;6.516;2023-12-07T05:59:25;0.80;99.90
60723;DHT22;46574;52.818;6.516;2023-12-07T06:01:54;0.80;99.90
60723;DHT22;46574;52.818;6.516;2023-12-07T06:04:19;0.80;99.90
60723;DHT22;46574;52.818;6.516;2023-12-07T06:06:45;0.80;99.90
60723;DHT22;46574;52.818;6.516;2023-12-07T06:09:11;0.70;99.90
60723;DHT22;46574;52.818;6.516;2023-12-07T06:11:37;0.70;99.90
60723;DHT22;46574;52.818;6.516;2023-12-07T06:14:02;0.70;99.90
60723;DHT22;46574;52.818;6.516;2023-12-07T06:16:28;0.70;99.90
60723;DHT22;46574;52.818;6.516;2023-12-07T06:18:54;0.60;99.90
60723;DHT22;46574;52.818;6.516;2023-12-07T06:21:19;0.70;99.90
60723;DHT22;46574;52.818;6.516;2023-12-07T06:23:46;0.70;99.90
60723;DHT22;46574;52.818;6.516;2023-12-07T06:26:12;0.60;99.90
60723;DHT22;46574;52.818;6.516;2023-12-07T06:28:38;0.60;99.90
60723;DHT22;46574;52.818;6.516;2023-12-07T06:31:07;0.60;99.90
60723;DHT22;46574;52.818;6.516;2023-12-07T06:33:33;0.60;99.90
60723;DHT22;46574;52.818;6.516;2023-12-07T06:36:00;0.60;99.90
60723;DHT22;46574;52.818;6.516;2023-12-07T06:38:26;0.60;99.90
60723;DHT22;46574;52.818;6.516;2023-12-07T06:40:51;0.70;99.90
60723;DHT22;46574;52.818;6.516;2023-12-07T06:43:17;0.60;99.90
60723;DHT22;46574;52.818;6.516;2023-12-07T06:45:42;0.60;99.90
60723;DHT22;46574;52.818;6.516;2023-12-07T06:48:08;0.60;99.90
60723;DHT22;46574;52.818;6.516;2023-12-07T06:50:34;0.60;99.90
60723;DHT22;46574;52.818;6.516;2023-12-07T06:52:59;0.60;99.90
60723;DHT22;46574;52.818;6.516;2023-12-07T06:55:25;0.50;99.90
60723;DHT22;46574;52.818;6.516;2023-12-07T06:57:52;0.50;99.90
60723;DHT22;46574;52.818;6.516;2023-12-07T07:00:18;0.50;99.90
60723;DHT22;46574;52.818;6.516;2023-12-07T07:02:45;0.50;99.90
60723;DHT22;46574;52.818;6.516;2023-12-07T07:05:11;0.40;99.90
60723;DHT22;46574;52.818;6.516;2023-12-07T07:07:37;0.40;99.90
60723;DHT22;46574;52.818;6.516;2023-12-07T07:10:03;0.40;99.90
60723;DHT22;46574;52.818;6.516;2023-12-07T07:12:29;0.40;99.90
60723;DHT22;46574;52.818;6.516;2023-12-07T07:14:55;0.40;99.90
60723;DHT22;46574;52.818;6.516;2023-12-07T07:17:21;0.40;99.90
60723;DHT22;46574;52.818;6.516;2023-12-07T07:19:46;0.40;99.90
60723;DHT22;46574;52.818;6.516;2023-12-07T07:22:12;0.40;99.90
60723;DHT22;46574;52.818;6.516;2023-12-07T07:24:38;0.40;99.90
60723;DHT22;46574;52.818;6.516;2023-12-07T07:27:03;0.40;99.90
60723;DHT22;46574;52.818;6.516;2023-12-07T07:29:30;0.40;99.90
60723;DHT22;46574;52.818;6.516;2023-12-07T07:31:57;0.40;99.90
60723;DHT22;46574;52.818;6.516;2023-12-07T07:34:23;0.40;99.90
60723;DHT22;46574;52.818;6.516;2023-12-07T07:36:50;0.50;99.90
60723;DHT22;46574;52.818;6.516;2023-12-07T07:39:16;0.40;99.90
60723;DHT22;46574;52.818;6.516;2023-12-07T07:41:41;0.40;99.90
60723;DHT22;46574;52.818;6.516;2023-12-07T07:44:07;0.40;99.90
60723;DHT22;46574;52.818;6.516;2023-12-07T07:46:33;0.40;99.90
60723;DHT22;46574;52.818;6.516;2023-12-07T07:48:58;0.40;99.90
60723;DHT22;46574;52.818;6.516;2023-12-07T07:51:24;0.40;99.90
60723;DHT22;46574;52.818;6.516;2023-12-07T07:53:49;0.40;99.90
60723;DHT22;46574;52.818;6.516;2023-12-07T07:56:15;0.40;99.90
60723;DHT22;46574;52.818;6.516;2023-12-07T07:58:41;0.40;99.90
60723;DHT22;46574;52.818;6.516;2023-12-07T08:01:06;0.40;99.90
60723;DHT22;46574;52.818;6.516;2023-12-07T08:03:32;0.40;99.90
60723;DHT22;46574;52.818;6.516;2023-12-07T08:05:58;0.40;99.90
60723;DHT22;46574;52.818;6.516;2023-12-07T08:08:23;0.40;99.90
60723;DHT22;46574;52.818;6.516;2023-12-07T08:10:51;0.40;99.90
60723;DHT22;46574;52.818;6.516;2023-12-07T08:13:17;0.50;99.90
60723;DHT22;46574;52.818;6.516;2023-12-07T08:15:43;0.40;99.90
60723;DHT22;46574;52.818;6.516;2023-12-07T08:18:08;0.50;99.90
60723;DHT22;46574;52.818;6.516;2023-12-07T08:20:34;0.50;99.90
60723;DHT22;46574;52.818;6.516;2023-12-07T08:23:00;0.50;99.90
60723;DHT22;46574;52.818;6.516;2023-12-07T08:25:26;0.50;99.90
60723;DHT22;46574;52.818;6.516;2023-12-07T08:27:51;0.60;99.90
60723;DHT22;46574;52.818;6.516;2023-12-07T08:30:17;0.60;99.90
60723;DHT22;46574;52.818;6.516;2023-12-07T08:32:44;0.60;99.90
60723;DHT22;46574;52.818;6.516;2023-12-07T08:35:09;0.70;99.90
60723;DHT22;46574;52.818;6.516;2023-12-07T08:37:37;0.70;99.90
60723;DHT22;46574;52.818;6.516;2023-12-07T08:40:04;0.80;99.90
60723;DHT22;46574;52.818;6.516;2023-12-07T08:42:30;0.80;99.90
60723;DHT22;46574;52.818;6.516;2023-12-07T08:44:57;0.80;99.90
60723;DHT22;46574;52.818;6.516;2023-12-07T08:47:23;0.90;99.90
60723;DHT22;46574;52.818;6.516;2023-12-07T08:49:51;0.90;99.90
60723;DHT22;46574;52.818;6.516;2023-12-07T08:52:16;1.00;99.90
60723;DHT22;46574;52.818;6.516;2023-12-07T08:54:43;1.10;99.90
60723;DHT22;46574;52.818;6.516;2023-12-07T08:57:10;1.10;99.90
60723;DHT22;46574;52.818;6.516;2023-12-07T08:59:35;1.10;99.90
60723;DHT22;46574;52.818;6.516;2023-12-07T09:02:01;1.10;99.90
60723;DHT22;46574;52.818;6.516;2023-12-07T09:04:27;1.10;99.90
60723;DHT22;46574;52.818;6.516;2023-12-07T09:06:52;1.10;99.90
60723;DHT22;46574;52.818;6.516;2023-12-07T09:09:19;1.20;99.90
60723;DHT22;46574;52.818;6.516;2023-12-07T12:45:07;1.90;99.90
60723;DHT22;46574;52.818;6.516;2023-12-07T12:47:34;1.90;99.90
60723;DHT22;46574;52.818;6.516;2023-12-07T12:50:01;2.00;99.90
60723;DHT22;46574;52.818;6.516;2023-12-07T12:52:29;2.00;99.90
60723;DHT22;46574;52.818;6.516;2023-12-07T12:54:56;2.00;99.90
60723;DHT22;46574;52.818;6.516;2023-12-07T12:57:22;2.00;99.90
60723;DHT22;46574;52.818;6.516;2023-12-07T12:59:48;2.10;99.90
60723;DHT22;46574;52.818;6.516;2023-12-07T13:02:15;2.10;99.90
60723;DHT22;46574;52.818;6.516;2023-12-07T13:04:41;2.10;99.90
60723;DHT22;46574;52.818;6.516;2023-12-07T13:07:06;2.10;99.90
60723;DHT22;46574;52.818;6.516;2023-12-07T13:09:32;2.10;99.90
60723;DHT22;46574;52.818;6.516;2023-12-07T13:11:58;2.00;99.90
60723;DHT22;46574;52.818;6.516;2023-12-07T13:14:24;2.10;99.90
60723;DHT22;46574;52.818;6.516;2023-12-07T13:16:50;2.10;99.90
60723;DHT22;46574;52.818;6.516;2023-12-07T13:19:18;2.10;99.90
60723;DHT22;46574;52.818;6.516;2023-12-07T13:21:45;2.10;99.90
60723;DHT22;46574;52.818;6.516;2023-12-07T13:24:11;2.10;99.90
60723;DHT22;46574;52.818;6.516;2023-12-07T13:26:38;2.10;99.90
60723;DHT22;46574;52.818;6.516;2023-12-07T13:29:04;2.10;99.90
60723;DHT22;46574;52.818;6.516;2023-12-07T13:31:30;2.10;99.90
60723;DHT22;46574;52.818;6.516;2023-12-07T13:33:56;2.10;99.90
60723;DHT22;46574;52.818;6.516;2023-12-07T13:36:22;2.10;99.90
60723;DHT22;46574;52.818;6.516;2023-12-07T13:38:51;2.10;99.90
60723;DHT22;46574;52.818;6.516;2023-12-07T13:41:16;2.20;99.90
60723;DHT22;46574;52.818;6.516;2023-12-07T13:43:42;2.20;99.90
60723;DHT22;46574;52.818;6.516;2023-12-07T13:46:08;2.30;99.90
60723;DHT22;46574;52.818;6.516;2023-12-07T13:48:34;2.30;99.90
60723;DHT22;46574;52.818;6.516;2023-12-07T13:51:00;2.30;99.90
60723;DHT22;46574;52.818;6.516;2023-12-07T13:53:25;2.30;99.90
60723;DHT22;46574;52.818;6.516;2023-12-07T13:55:51;2.30;99.90
60723;DHT22;46574;52.818;6.516;2023-12-07T13:58:17;2.40;99.90
60723;DHT22;46574;52.818;6.516;2023-12-07T14:00:43;2.40;99.90
60723;DHT22;46574;52.818;6.516;2023-12-07T14:03:12;2.40;99.90
60723;DHT22;46574;52.818;6.516;2023-12-07T14:05:38;2.50;99.90
60723;DHT22;46574;52.818;6.516;2023-12-07T14:08:05;2.50;99.90
60723;DHT22;46574;52.818;6.516;2023-12-07T14:10:31;2.50;99.90
60723;DHT22;46574;52.818;6.516;2023-12-07T14:12:56;2.50;99.90
60723;DHT22;46574;52.818;6.516;2023-12-07T14:15:22;2.50;99.90
60723;DHT22;46574;52.818;6.516;2023-12-07T14:17:48;2.50;99.90
60723;DHT22;46574;52.818;6.516;2023-12-07T14:20:14;2.50;99.90
60723;DHT22;46574;52.818;6.516;2023-12-07T14:22:40;2.50;99.90
60723;DHT22;46574;52.818;6.516;2023-12-07T14:25:06;2.50;99.90
60723;DHT22;46574;52.818;6.516;2023-12-07T14:27:32;2.60;99.90
60723;DHT22;46574;52.818;6.516;2023-12-07T14:29:57;2.60;99.90
60723;DHT22;46574;52.818;6.516;2023-12-07T14:32:23;2.60;99.90
60723;DHT22;46574;52.818;6.516;2023-12-07T14:34:49;2.70;99.90
60723;DHT22;46574;52.818;6.516;2023-12-07T14:37:15;2.70;99.90
60723;DHT22;46574;52.818;6.516;2023-12-07T14:39:40;2.70;99.90
60723;DHT22;46574;52.818;6.516;2023-12-07T14:42:06;2.70;99.90
60723;DHT22;46574;52.818;6.516;2023-12-07T14:44:32;2.70;99.90
60723;DHT22;46574;52.818;6.516;2023-12-07T14:46:58;2.70;99.90
60723;DHT22;46574;52.818;6.516;2023-12-07T14:49:25;2.70;99.90
60723;DHT22;46574;52.818;6.516;2023-12-07T14:51:51;2.80;99.90
60723;DHT22;46574;52.818;6.516;2023-12-07T14:54:17;2.80;99.90
60723;DHT22;46574;52.818;6.516;2023-12-07T14:56:43;2.80;99.90
60723;DHT22;46574;52.818;6.516;2023-12-07T14:59:12;2.80;99.90
60723;DHT22;46574;52.818;6.516;2023-12-07T15:01:39;2.80;99.90
60723;DHT22;46574;52.818;6.516;2023-12-07T15:04:05;2.80;99.90
60723;DHT22;46574;52.818;6.516;2023-12-07T15:06:31;2.80;99.90
60723;DHT22;46574;52.818;6.516;2023-12-07T15:08:57;2.80;99.90
60723;DHT22;46574;52.818;6.516;2023-12-07T15:11:23;2.80;99.90
60723;DHT22;46574;52.818;6.516;2023-12-07T15:13:49;2.80;99.90
60723;DHT22;46574;52.818;6.516;2023-12-07T15:16:15;2.80;99.90
60723;DHT22;46574;52.818;6.516;2023-12-07T15:18:41;2.80;99.90
60723;DHT22;46574;52.818;6.516;2023-12-07T15:21:13;2.80;99.90
60723;DHT22;46574;52.818;6.516;2023-12-07T15:23:42;2.80;99.90
60723;DHT22;46574;52.818;6.516;2023-12-07T15:26:11;2.80;99.90
60723;DHT22;46574;52.818;6.516;2023-12-07T15:28:38;2.80;99.90
60723;DHT22;46574;52.818;6.516;2023-12-07T15:31:05;2.80;99.90
60723;DHT22;46574;52.818;6.516;2023-12-07T15:33:34;2.80;99.90
60723;DHT22;46574;52.818;6.516;2023-12-07T15:36:00;2.80;99.90
60723;DHT22;46574;52.818;6.516;2023-12-07T15:38:26;2.80;99.90
60723;DHT22;46574;52.818;6.516;2023-12-07T15:40:52;2.80;99.90
60723;DHT22;46574;52.818;6.516;2023-12-07T15:43:22;2.80;99.90
60723;DHT22;46574;52.818;6.516;2023-12-07T15:45:48;2.80;99.90
60723;DHT22;46574;52.818;6.516;2023-12-07T15:48:13;2.80;99.90
60723;DHT22;46574;52.818;6.516;2023-12-07T15:50:39;2.80;99.90
60723;DHT22;46574;52.818;6.516;2023-12-07T15:53:05;2.90;99.90
60723;DHT22;46574;52.818;6.516;2023-12-07T15:55:30;2.90;99.90
60723;DHT22;46574;52.818;6.516;2023-12-07T15:57:56;2.90;99.90
60723;DHT22;46574;52.818;6.516;2023-12-07T16:00:22;2.90;99.90
60723;DHT22;46574;52.818;6.516;2023-12-07T16:02:48;2.90;99.90
60723;DHT22;46574;52.818;6.516;2023-12-07T16:05:13;3.00;99.90
60723;DHT22;46574;52.818;6.516;2023-12-07T16:07:39;3.00;99.90
60723;DHT22;46574;52.818;6.516;2023-12-07T16:10:10;2.90;99.90
60723;DHT22;46574;52.818;6.516;2023-12-07T16:12:36;3.00;99.90
60723;DHT22;46574;52.818;6.516;2023-12-07T16:15:05;3.00;99.90
60723;DHT22;46574;52.818;6.516;2023-12-07T16:17:34;2.90;99.90
60723;DHT22;46574;52.818;6.516;2023-12-07T16:20:00;2.90;99.90
60723;DHT22;46574;52.818;6.516;2023-12-07T16:22:26;2.90;99.90
60723;DHT22;46574;52.818;6.516;2023-12-07T16:24:52;2.90;99.90
60723;DHT22;46574;52.818;6.516;2023-12-07T16:27:20;2.90;99.90
60723;DHT22;46574;52.818;6.516;2023-12-07T16:29:46;2.90;99.90
60723;DHT22;46574;52.818;6.516;2023-12-07T16:32:12;2.90;99.90
60723;DHT22;46574;52.818;6.516;2023-12-07T16:34:38;2.90;99.90
60723;DHT22;46574;52.818;6.516;2023-12-07T16:37:04;2.90;99.90
60723;DHT22;46574;52.818;6.516;2023-12-07T16:39:30;2.90;99.90
60723;DHT22;46574;52.818;6.516;2023-12-07T16:41:56;2.80;99.90
60723;DHT22;46574;52.818;6.516;2023-12-07T16:44:21;2.80;99.90
60723;DHT22;46574;52.818;6.516;2023-12-07T16:46:47;2.80;99.90
60723;DHT22;46574;52.818;6.516;2023-12-07T16:49:13;2.80;99.90
60723;DHT22;46574;52.818;6.516;2023-12-07T16:51:39;2.80;99.90
60723;DHT22;46574;52.818;6.516;2023-12-07T16:54:05;2.70;99.90
60723;DHT22;46574;52.818;6.516;2023-12-07T16:56:31;2.70;99.90
60723;DHT22;46574;52.818;6.516;2023-12-07T16:58:56;2.70;99.90
60723;DHT22;46574;52.818;6.516;2023-12-07T17:01:22;2.70;99.90
60723;DHT22;46574;52.818;6.516;2023-12-07T17:03:48;2.70;99.90
60723;DHT22;46574;52.818;6.516;2023-12-07T17:06:15;2.80;99.90
60723;DHT22;46574;52.818;6.516;2023-12-07T17:08:44;2.80;99.90
60723;DHT22;46574;52.818;6.516;2023-12-07T17:11:09;2.80;99.90
60723;DHT22;46574;52.818;6.516;2023-12-07T17:13:35;2.80;99.90
60723;DHT22;46574;52.818;6.516;2023-12-07T17:16:02;2.70;99.90
60723;DHT22;46574;52.818;6.516;2023-12-07T17:18:28;2.70;99.90
60723;DHT22;46574;52.818;6.516;2023-12-07T17:20:54;2.70;99.90
60723;DHT22;46574;52.818;6.516;2023-12-07T17:23:20;2.70;99.90
60723;DHT22;46574;52.818;6.516;2023-12-07T17:25:45;2.70;99.90
60723;DHT22;46574;52.818;6.516;2023-12-07T17:28:11;2.70;99.90
60723;DHT22;46574;52.818;6.516;2023-12-07T17:30:36;2.70;99.90
60723;DHT22;46574;52.818;6.516;2023-12-07T17:33:02;2.70;99.90
60723;DHT22;46574;52.818;6.516;2023-12-07T17:35:28;2.70;99.90
60723;DHT22;46574;52.818;6.516;2023-12-07T17:37:53;2.70;99.90
60723;DHT22;46574;52.818;6.516;2023-12-07T17:40:20;2.70;99.90
60723;DHT22;46574;52.818;6.516;2023-12-07T17:42:46;2.60;99.90
60723;DHT22;46574;52.818;6.516;2023-12-07T17:45:11;2.60;99.90
60723;DHT22;46574;52.818;6.516;2023-12-07T17:47:37;2.60;99.90
60723;DHT22;46574;52.818;6.516;2023-12-07T17:50:05;2.60;99.90
60723;DHT22;46574;52.818;6.516;2023-12-07T17:52:32;2.50;99.90
60723;DHT22;46574;52.818;6.516;2023-12-07T17:54:57;2.60;99.90
60723;DHT22;46574;52.818;6.516;2023-12-07T17:57:23;2.50;99.90
60723;DHT22;46574;52.818;6.516;2023-12-07T17:59:48;2.50;99.90
60723;DHT22;46574;52.818;6.516;2023-12-07T18:02:14;2.50;99.90
60723;DHT22;46574;52.818;6.516;2023-12-07T18:04:40;2.50;99.90
60723;DHT22;46574;52.818;6.516;2023-12-07T18:07:06;2.50;99.90
60723;DHT22;46574;52.818;6.516;2023-12-07T18:09:32;2.50;99.90
60723;DHT22;46574;52.818;6.516;2023-12-07T18:11:57;2.50;99.90
60723;DHT22;46574;52.818;6.516;2023-12-07T18:14:25;2.50;99.90
60723;DHT22;46574;52.818;6.516;2023-12-07T18:16:50;2.50;99.90
60723;DHT22;46574;52.818;6.516;2023-12-07T18:19:16;2.50;99.90
60723;DHT22;46574;52.818;6.516;2023-12-07T18:21:42;2.50;99.90
60723;DHT22;46574;52.818;6.516;2023-12-07T18:24:08;2.50;99.90
60723;DHT22;46574;52.818;6.516;2023-12-07T18:26:34;2.50;99.90
60723;DHT22;46574;52.818;6.516;2023-12-07T18:29:03;2.50;99.90
60723;DHT22;46574;52.818;6.516;2023-12-07T18:31:30;2.40;99.90
60723;DHT22;46574;52.818;6.516;2023-12-07T18:33:55;2.40;99.90
60723;DHT22;46574;52.818;6.516;2023-12-07T18:36:21;2.40;99.90
60723;DHT22;46574;52.818;6.516;2023-12-07T18:38:47;2.40;99.90
60723;DHT22;46574;52.818;6.516;2023-12-07T18:41:12;2.40;99.90
60723;DHT22;46574;52.818;6.516;2023-12-07T18:43:38;2.40;99.90
60723;DHT22;46574;52.818;6.516;2023-12-07T18:46:04;2.40;99.90
60723;DHT22;46574;52.818;6.516;2023-12-07T18:48:31;2.40;99.90
60723;DHT22;46574;52.818;6.516;2023-12-07T18:50:57;2.40;99.90
60723;DHT22;46574;52.818;6.516;2023-12-07T18:53:25;2.40;99.90
60723;DHT22;46574;52.818;6.516;2023-12-07T18:55:53;2.40;99.90
60723;DHT22;46574;52.818;6.516;2023-12-07T18:58:18;2.30;99.90
60723;DHT22;46574;52.818;6.516;2023-12-07T19:00:44;2.30;99.90
60723;DHT22;46574;52.818;6.516;2023-12-07T19:03:11;2.30;99.90
60723;DHT22;46574;52.818;6.516;2023-12-07T19:05:37;2.30;99.90
60723;DHT22;46574;52.818;6.516;2023-12-07T19:08:03;2.30;99.90
60723;DHT22;46574;52.818;6.516;2023-12-07T19:10:28;2.30;99.90
60723;DHT22;46574;52.818;6.516;2023-12-07T19:12:54;2.30;99.90